Time;durP1;ratioP1;P1;durP2;ratioP2;P2;SDS_P1;SDS_P2;PMS_P1;PMS_P2;Temp;Humidity;BMP_temperature;BMP_pressure;BME280_temperature;BME280_humidity;BME280_pressure;Samples;Min_cycle;Max_cycle;Signal;HPM_P1;HPM_P2
2023/02/06 00:00:05;;;;;;;1.48;1.38;;;;;;;;;;4977175;28;20058;-87
2023/02/06 00:02:32;;;;;;;1.33;0.80;;;;;;;;;;4993672;28;20058;-88
2023/02/06 00:04:58;;;;;;;2.67;1.73;;;;;;;;;;4991973;28;20081;-88
2023/02/06 00:07:25;;;;;;;1.92;1.65;;;;;;;;;;4993422;28;20084;-88
2023/02/06 00:09:51;;;;;;;0.60;0.55;;;;;;;;;;4992606;28;20042;-88
2023/02/06 00:12:18;;;;;;;0.93;0.90;;;;;;;;;;4994033;28;20197;-87
2023/02/06 00:14:44;;;;;;;3.30;2.13;;;;;;;;;;4993069;28;20046;-87
2023/02/06 00:17:12;;;;;;;2.40;2.28;;;;;;;;;;4993107;28;20050;-88
2023/02/06 00:19:38;;;;;;;1.15;1.08;;;;;;;;;;4993367;28;20050;-87
2023/02/06 00:22:05;;;;;;;1.52;1.42;;;;;;;;;;4991450;28;20046;-88
2023/02/06 00:24:31;;;;;;;1.55;1.45;;;;;;;;;;4993305;28;20080;-87
2023/02/06 00:26:58;;;;;;;1.45;1.35;;;;;;;;;;4993445;28;20050;-87
2023/02/06 00:29:26;;;;;;;1.27;0.98;;;;;;;;;;4993461;28;20050;-88
2023/02/06 00:31:52;;;;;;;1.35;1.25;;;;;;;;;;4992939;28;20049;-87
2023/02/06 00:34:20;;;;;;;1.80;1.30;;;;;;;;;;4993034;28;20058;-88
2023/02/06 00:36:47;;;;;;;0.45;0.45;;;;;;;;;;4993359;28;20046;-88
2023/02/06 00:39:13;;;;;;;0.73;0.73;;;;;;;;;;4992677;28;20046;-88
2023/02/06 00:41:40;;;;;;;0.80;0.77;;;;;;;;;;4991709;28;20117;-87
2023/02/06 00:44:06;;;;;;;3.03;1.77;;;;;;;;;;4992853;28;20089;-87
2023/02/06 00:46:33;;;;;;;0.77;0.70;;;;;;;;;;4993171;28;20054;-87
2023/02/06 00:48:59;;;;;;;0.77;0.77;;;;;;;;;;4993074;28;20400;-88
2023/02/06 00:51:27;;;;;;;1.35;1.30;;;;;;;;;;4993431;28;20890;-88
2023/02/06 00:53:54;;;;;;;0.63;0.57;;;;;;;;;;4992905;28;20074;-88
2023/02/06 00:56:20;;;;;;;1.00;1.00;;;;;;;;;;4993013;28;20050;-88
2023/02/06 00:58:47;;;;;;;0.90;0.90;;;;;;;;;;4991723;28;20070;-89
2023/02/06 01:01:13;;;;;;;0.95;0.90;;;;;;;;;;4992588;28;20062;-87
2023/02/06 01:03:40;;;;;;;1.33;1.17;;;;;;;;;;4992656;28;20039;-87
2023/02/06 01:06:06;;;;;;;1.38;1.27;;;;;;;;;;4992710;28;20054;-87
2023/02/06 01:08:34;;;;;;;1.17;1.13;;;;;;;;;;4993202;28;20061;-88
2023/02/06 01:11:01;;;;;;;1.27;1.17;;;;;;;;;;4996476;28;20100;-87
2023/02/06 01:13:27;;;;;;;1.67;1.58;;;;;;;;;;4994598;28;20042;-87
2023/02/06 01:15:54;;;;;;;1.33;1.23;;;;;;;;;;4987832;28;20511;-87
2023/02/06 01:18:20;;;;;;;1.45;1.35;;;;;;;;;;4996082;28;20074;-87
2023/02/06 01:20:47;;;;;;;0.50;0.50;;;;;;;;;;4996314;28;20054;-87
2023/02/06 01:23:13;;;;;;;2.33;2.22;;;;;;;;;;4996101;28;20050;-87
2023/02/06 01:25:41;;;;;;;0.90;0.90;;;;;;;;;;4996174;28;20054;-88
2023/02/06 01:28:08;;;;;;;1.30;1.27;;;;;;;;;;4996546;28;20050;-87
2023/02/06 01:30:34;;;;;;;1.73;1.42;;;;;;;;;;4993840;28;20558;-87
2023/02/06 01:33:01;;;;;;;0.82;0.77;;;;;;;;;;4994641;28;20214;-87
2023/02/06 01:35:28;;;;;;;5.05;2.10;;;;;;;;;;4995649;28;20050;-88
2023/02/06 01:37:54;;;;;;;1.58;1.48;;;;;;;;;;4995962;28;20062;-87
2023/02/06 01:40:21;;;;;;;2.83;1.65;;;;;;;;;;4995974;28;20046;-87
2023/02/06 01:42:49;;;;;;;0.88;0.73;;;;;;;;;;4995717;28;20058;-87
2023/02/06 01:45:30;;;;;;;3.25;1.25;;;;;;;;;;4996173;28;20496;-88
2023/02/06 01:47:58;;;;;;;4.38;2.72;;;;;;;;;;4992706;28;20102;-87
2023/02/06 01:50:25;;;;;;;1.63;1.52;;;;;;;;;;4993789;28;20087;-87
2023/02/06 01:52:51;;;;;;;0.73;0.73;;;;;;;;;;4995618;28;20050;-88
2023/02/06 01:55:18;;;;;;;0.73;0.73;;;;;;;;;;4995381;28;20500;-88
2023/02/06 01:57:44;;;;;;;0.80;0.80;;;;;;;;;;4995371;28;20136;-88
2023/02/06 02:00:13;;;;;;;0.35;0.25;;;;;;;;;;4995183;28;20125;-88
2023/02/06 02:02:42;;;;;;;0.85;0.85;;;;;;;;;;4996304;28;20076;-89
2023/02/06 02:05:10;;;;;;;1.17;1.13;;;;;;;;;;4995331;28;20057;-87
2023/02/06 02:07:38;;;;;;;2.42;1.60;;;;;;;;;;4994707;28;20050;-89
2023/02/06 02:10:04;;;;;;;1.02;1.02;;;;;;;;;;4996570;28;20054;-88
2023/02/06 02:12:31;;;;;;;0.82;0.82;;;;;;;;;;4995292;28;20050;-88
2023/02/06 02:14:58;;;;;;;1.17;0.95;;;;;;;;;;4995451;28;20105;-88
2023/02/06 02:17:29;;;;;;;0.80;0.80;;;;;;;;;;4997216;28;20050;-89
2023/02/06 02:20:06;;;;;;;1.67;1.58;;;;;;;;;;4995072;28;20062;-89
2023/02/06 02:22:39;;;;;;;1.38;1.27;;;;;;;;;;4996108;28;20097;-88
2023/02/06 02:25:16;;;;;;;1.13;1.10;;;;;;;;;;4993969;28;20051;-89
2023/02/06 02:27:46;;;;;;;1.45;1.35;;;;;;;;;;4995717;28;20101;-89
2023/02/06 02:30:30;;;;;;;1.05;1.05;;;;;;;;;;4995013;28;20054;-89
2023/02/06 02:33:09;;;;;;;2.65;2.50;;;;;;;;;;4994858;28;20721;-88
2023/02/06 02:35:42;;;;;;;0.82;0.80;;;;;;;;;;4994719;28;20124;-88
2023/02/06 02:38:14;;;;;;;1.20;1.10;;;;;;;;;;4994732;28;20050;-88
2023/02/06 02:40:45;;;;;;;1.08;1.02;;;;;;;;;;4996168;28;20055;-89
2023/02/06 02:43:17;;;;;;;0.82;0.82;;;;;;;;;;4995504;28;20467;-88
2023/02/06 02:45:46;;;;;;;2.05;1.95;;;;;;;;;;4994738;28;20468;-88
2023/02/06 02:48:14;;;;;;;4.18;1.00;;;;;;;;;;4995153;28;20113;-89
2023/02/06 02:53:27;;;;;;;1.83;1.73;;;;;;;;;;4994983;28;20077;-89
2023/02/06 02:55:54;;;;;;;1.27;1.17;;;;;;;;;;4993728;28;20101;-88
2023/02/06 02:58:23;;;;;;;0.80;0.80;;;;;;;;;;4997657;28;20431;-88
2023/02/06 03:00:51;;;;;;;1.95;1.48;;;;;;;;;;5004039;28;20070;-88
2023/02/06 03:03:21;;;;;;;1.20;0.88;;;;;;;;;;5013725;28;20057;-88
2023/02/06 03:05:54;;;;;;;2.63;2.53;;;;;;;;;;5013750;28;20050;-88
2023/02/06 03:08:26;;;;;;;1.77;1.38;;;;;;;;;;5013785;28;20049;-88
2023/02/06 03:10:57;;;;;;;0.77;0.77;;;;;;;;;;5013466;28;20492;-88
2023/02/06 03:13:34;;;;;;;2.80;2.35;;;;;;;;;;5000012;28;20061;-89
2023/02/06 03:16:03;;;;;;;2.08;1.98;;;;;;;;;;4994046;28;20065;-88
2023/02/06 03:18:31;;;;;;;2.78;2.58;;;;;;;;;;4994136;28;20050;-88
2023/02/06 03:20:59;;;;;;;1.60;1.50;;;;;;;;;;5009115;28;20097;-89
2023/02/06 03:23:29;;;;;;;1.73;1.63;;;;;;;;;;5013493;28;20046;-88
2023/02/06 03:25:58;;;;;;;1.00;0.98;;;;;;;;;;5019093;28;20056;-88
2023/02/06 03:28:26;;;;;;;1.40;1.30;;;;;;;;;;5010616;28;20049;-87
2023/02/06 03:30:54;;;;;;;0.63;0.63;;;;;;;;;;4993168;28;20389;-88
2023/02/06 03:33:22;;;;;;;1.25;1.15;;;;;;;;;;4993588;28;20109;-88
2023/02/06 03:35:49;;;;;;;0.80;0.80;;;;;;;;;;5006835;28;20113;-88
2023/02/06 03:38:17;;;;;;;0.90;0.90;;;;;;;;;;5013919;28;20141;-88
2023/02/06 03:40:47;;;;;;;1.77;1.67;;;;;;;;;;5001851;28;20050;-88
2023/02/06 03:43:17;;;;;;;1.67;1.58;;;;;;;;;;4994133;28;20058;-89
2023/02/06 03:45:45;;;;;;;1.45;1.35;;;;;;;;;;4992370;28;20066;-89
2023/02/06 03:48:14;;;;;;;1.98;1.25;;;;;;;;;;4994981;28;20113;-88
2023/02/06 03:50:42;;;;;;;1.98;1.88;;;;;;;;;;5004675;28;20054;-88
2023/02/06 03:53:10;;;;;;;1.13;1.13;;;;;;;;;;5013324;28;20180;-88
2023/02/06 03:55:38;;;;;;;1.67;1.63;;;;;;;;;;5013270;28;20058;-88
2023/02/06 03:58:06;;;;;;;2.20;2.10;;;;;;;;;;5013320;28;20053;-88
2023/02/06 04:00:33;;;;;;;0.77;0.73;;;;;;;;;;5013068;28;20566;-88
2023/02/06 04:03:00;;;;;;;0.95;0.93;;;;;;;;;;4992677;28;20046;-88
2023/02/06 04:05:27;;;;;;;1.02;1.00;;;;;;;;;;5001733;28;20095;-88
2023/02/06 04:07:55;;;;;;;1.17;1.17;;;;;;;;;;5013490;28;20100;-88
2023/02/06 04:10:22;;;;;;;1.13;1.08;;;;;;;;;;5012987;28;20506;-88
2023/02/06 04:12:49;;;;;;;1.05;1.05;;;;;;;;;;5012927;28;20048;-89
2023/02/06 04:15:16;;;;;;;0.65;0.65;;;;;;;;;;5013015;28;20056;-89
2023/02/06 04:17:43;;;;;;;1.15;1.10;;;;;;;;;;5011980;28;20053;-88
2023/02/06 04:20:10;;;;;;;1.45;1.35;;;;;;;;;;4997757;28;20053;-90
2023/02/06 04:22:36;;;;;;;3.22;1.58;;;;;;;;;;5013185;28;20054;-89
2023/02/06 04:25:03;;;;;;;1.50;1.40;;;;;;;;;;5013273;28;20054;-89
2023/02/06 04:27:29;;;;;;;2.60;2.45;;;;;;;;;;5013154;28;20496;-88
2023/02/06 04:29:57;;;;;;;1.40;1.30;;;;;;;;;;5010807;28;20089;-89
2023/02/06 04:32:23;;;;;;;1.35;1.25;;;;;;;;;;4993486;28;20109;-89
2023/02/06 04:34:50;;;;;;;1.92;1.83;;;;;;;;;;4994523;28;20125;-88
2023/02/06 04:37:16;;;;;;;2.28;1.90;;;;;;;;;;4994228;28;20042;-88
2023/02/06 04:39:43;;;;;;;1.08;1.08;;;;;;;;;;4993571;28;20050;-89
2023/02/06 04:42:09;;;;;;;1.80;1.70;;;;;;;;;;4993853;28;20412;-91
2023/02/06 04:44:37;;;;;;;1.58;1.50;;;;;;;;;;4996921;28;20057;-90
2023/02/06 04:47:05;;;;;;;1.27;1.17;;;;;;;;;;4997875;28;20050;-89
2023/02/06 04:49:32;;;;;;;2.00;1.90;;;;;;;;;;4998030;28;20062;-89
2023/02/06 04:51:58;;;;;;;2.25;2.15;;;;;;;;;;5015207;28;20046;-89
2023/02/06 04:54:25;;;;;;;1.25;1.17;;;;;;;;;;5011373;28;20113;-89
2023/02/06 04:56:51;;;;;;;1.42;1.33;;;;;;;;;;5011220;28;20049;-90
2023/02/06 04:59:18;;;;;;;1.10;1.08;;;;;;;;;;5017087;28;20050;-90
2023/02/06 05:01:44;;;;;;;0.90;0.88;;;;;;;;;;5015814;28;20065;-89
2023/02/06 05:04:12;;;;;;;1.30;1.20;;;;;;;;;;5016351;28;20045;-89
2023/02/06 05:06:39;;;;;;;2.30;2.17;;;;;;;;;;5002232;28;20046;-89
2023/02/06 05:09:05;;;;;;;1.02;1.02;;;;;;;;;;4997387;28;20062;-89
2023/02/06 05:11:32;;;;;;;1.10;1.00;;;;;;;;;;4996062;28;20046;-89
2023/02/06 05:13:59;;;;;;;2.17;2.08;;;;;;;;;;4997739;28;20043;-90
2023/02/06 05:16:25;;;;;;;1.55;1.45;;;;;;;;;;5009262;28;20058;-89
2023/02/06 05:18:53;;;;;;;1.23;1.17;;;;;;;;;;5016500;28;20056;-89
2023/02/06 05:21:21;;;;;;;0.85;0.85;;;;;;;;;;5004977;28;20061;-89
2023/02/06 05:23:47;;;;;;;0.90;0.90;;;;;;;;;;4997000;28;20112;-89
2023/02/06 05:26:14;;;;;;;2.28;2.17;;;;;;;;;;4996249;28;20058;-88
2023/02/06 05:28:40;;;;;;;1.50;1.48;;;;;;;;;;4995594;28;20046;-89
2023/02/06 05:31:07;;;;;;;0.88;0.88;;;;;;;;;;5004974;28;20132;-88
2023/02/06 05:33:33;;;;;;;3.30;3.20;;;;;;;;;;5016471;28;20104;-89
2023/02/06 05:36:03;;;;;;;0.60;0.60;;;;;;;;;;5015704;28;20049;-88
2023/02/06 05:38:31;;;;;;;0.73;0.73;;;;;;;;;;5016483;28;20491;-89
2023/02/06 05:40:58;;;;;;;4.22;4.03;;;;;;;;;;5008725;28;20077;-88
2023/02/06 05:43:24;;;;;;;2.30;2.17;;;;;;;;;;4995090;28;20046;-88
2023/02/06 05:45:51;;;;;;;3.15;2.95;;;;;;;;;;5001079;28;20504;-88
2023/02/06 05:48:17;;;;;;;0.80;0.80;;;;;;;;;;5015785;28;20546;-88
2023/02/06 05:50:44;;;;;;;1.10;1.08;;;;;;;;;;5009333;28;20050;-88
2023/02/06 05:53:11;;;;;;;1.25;1.15;;;;;;;;;;4998067;28;20046;-88
2023/02/06 05:55:38;;;;;;;0.57;0.57;;;;;;;;;;5006232;28;20049;-90
2023/02/06 05:58:05;;;;;;;1.17;1.15;;;;;;;;;;5005204;28;20104;-92
2023/02/06 06:00:31;;;;;;;0.82;0.80;;;;;;;;;;5005774;28;20057;-89
2023/02/06 06:02:58;;;;;;;0.98;0.98;;;;;;;;;;4999823;28;20050;-89
2023/02/06 06:05:24;;;;;;;1.38;1.27;;;;;;;;;;5003071;28;20074;-89
2023/02/06 06:07:51;;;;;;;0.60;0.60;;;;;;;;;;5000993;28;20038;-89
2023/02/06 06:10:18;;;;;;;1.52;1.42;;;;;;;;;;5001064;28;20451;-89
2023/02/06 06:12:45;;;;;;;0.77;0.65;;;;;;;;;;5005118;28;20046;-89
2023/02/06 06:15:12;;;;;;;1.67;1.58;;;;;;;;;;5008469;28;20046;-90
2023/02/06 06:17:39;;;;;;;3.20;1.45;;;;;;;;;;4995907;28;20050;-88
2023/02/06 06:20:05;;;;;;;5.40;3.88;;;;;;;;;;4993994;28;20067;-89
2023/02/06 06:22:32;;;;;;;7.88;5.68;;;;;;;;;;4987200;28;20500;-88
2023/02/06 06:24:58;;;;;;;4.70;3.03;;;;;;;;;;4992963;28;20097;-89
2023/02/06 06:27:25;;;;;;;2.35;2.03;;;;;;;;;;4994057;28;20109;-89
2023/02/06 06:29:54;;;;;;;1.10;1.00;;;;;;;;;;4994013;28;20058;-88
2023/02/06 06:32:21;;;;;;;6.57;3.28;;;;;;;;;;4994026;28;20046;-91
2023/02/06 06:34:47;;;;;;;4.88;3.20;;;;;;;;;;4994520;28;20411;-89
2023/02/06 06:37:14;;;;;;;2.88;2.53;;;;;;;;;;4992647;28;20051;-89
2023/02/06 06:39:40;;;;;;;3.67;1.55;;;;;;;;;;4994058;28;20046;-88
2023/02/06 06:42:07;;;;;;;1.88;1.73;;;;;;;;;;4993929;28;20050;-88
2023/02/06 06:44:33;;;;;;;2.83;2.63;;;;;;;;;;4994382;28;20058;-88
2023/02/06 06:47:01;;;;;;;0.93;0.93;;;;;;;;;;4994451;28;20054;-88
2023/02/06 06:49:28;;;;;;;1.70;1.60;;;;;;;;;;4995085;28;20054;-89
2023/02/06 06:51:54;;;;;;;1.13;1.10;;;;;;;;;;4994066;28;20113;-89
2023/02/06 06:54:21;;;;;;;3.28;2.50;;;;;;;;;;4994249;28;20054;-89
2023/02/06 06:56:48;;;;;;;2.55;2.30;;;;;;;;;;4992163;28;20052;-89
2023/02/06 06:59:14;;;;;;;1.20;1.10;;;;;;;;;;4993941;28;20054;-88
2023/02/06 07:01:41;;;;;;;4.05;2.55;;;;;;;;;;4993905;28;20065;-88
2023/02/06 07:04:09;;;;;;;1.77;1.67;;;;;;;;;;4994530;28;20050;-89
2023/02/06 07:06:35;;;;;;;1.35;1.33;;;;;;;;;;4994833;28;20046;-90
2023/02/06 07:09:02;;;;;;;1.33;1.23;;;;;;;;;;4993984;28;20054;-90
2023/02/06 07:11:28;;;;;;;1.30;1.30;;;;;;;;;;4994403;28;20062;-89
2023/02/06 07:13:56;;;;;;;5.53;3.17;;;;;;;;;;4997554;28;20050;-90
2023/02/06 07:16:23;;;;;;;0.77;0.77;;;;;;;;;;5001981;28;20061;-89
2023/02/06 07:18:50;;;;;;;0.68;0.68;;;;;;;;;;5020221;28;20046;-89
2023/02/06 07:21:18;;;;;;;0.77;0.77;;;;;;;;;;5003587;28;20804;-90
2023/02/06 07:23:45;;;;;;;1.20;1.17;;;;;;;;;;4993922;28;20476;-89
2023/02/06 07:26:11;;;;;;;1.10;0.93;;;;;;;;;;4992522;28;20046;-88
2023/02/06 07:28:38;;;;;;;2.35;2.15;;;;;;;;;;4993745;28;20051;-89
2023/02/06 07:31:05;;;;;;;3.17;2.97;;;;;;;;;;4993671;28;20046;-89
2023/02/06 07:33:32;;;;;;;4.53;3.55;;;;;;;;;;4993592;28;20042;-92
2023/02/06 07:35:59;;;;;;;4.63;2.65;;;;;;;;;;4994528;28;20159;-91
2023/02/06 07:38:27;;;;;;;4.88;3.20;;;;;;;;;;4994763;28;20050;-93
2023/02/06 07:40:53;;;;;;;6.32;2.80;;;;;;;;;;4995072;28;20050;-92
2023/02/06 07:43:20;;;;;;;1.58;1.50;;;;;;;;;;4974676;28;20070;-89
2023/02/06 07:45:46;;;;;;;2.10;1.88;;;;;;;;;;4973963;28;20051;-89
2023/02/06 07:48:13;;;;;;;1.27;1.17;;;;;;;;;;4992714;28;20054;-88
2023/02/06 07:50:39;;;;;;;1.60;1.50;;;;;;;;;;4993211;28;20046;-89
2023/02/06 07:53:06;;;;;;;9.25;8.40;;;;;;;;;;4993148;28;20459;-89
2023/02/06 07:55:34;;;;;;;1.80;1.67;;;;;;;;;;4993237;28;20050;-89
2023/02/06 07:58:01;;;;;;;1.35;1.25;;;;;;;;;;4993559;28;20046;-90
2023/02/06 08:00:28;;;;;;;1.30;0.90;;;;;;;;;;4993311;28;20061;-89
2023/02/06 08:02:54;;;;;;;1.17;1.15;;;;;;;;;;4993875;28;20049;-88
2023/02/06 08:05:21;;;;;;;4.93;2.60;;;;;;;;;;4993374;28;20053;-89
2023/02/06 08:07:47;;;;;;;2.85;2.67;;;;;;;;;;4994142;28;20065;-87
2023/02/06 08:10:14;;;;;;;2.42;1.98;;;;;;;;;;4993701;28;20049;-88
2023/02/06 08:12:43;;;;;;;5.75;3.50;;;;;;;;;;4993594;28;20053;-88
2023/02/06 08:15:10;;;;;;;2.40;2.20;;;;;;;;;;4992738;28;20133;-89
2023/02/06 08:17:36;;;;;;;4.43;1.63;;;;;;;;;;4993909;28;20042;-91
2023/02/06 08:20:03;;;;;;;0.88;0.77;;;;;;;;;;4998218;28;20097;-89
2023/02/06 08:22:30;;;;;;;3.22;2.05;;;;;;;;;;4996903;28;20047;-90
2023/02/06 08:24:56;;;;;;;1.35;1.15;;;;;;;;;;4995513;28;20464;-89
2023/02/06 08:27:23;;;;;;;1.60;1.50;;;;;;;;;;4993246;28;20105;-91
2023/02/06 08:29:51;;;;;;;1.42;1.33;;;;;;;;;;4991945;28;20050;-90
2023/02/06 08:32:17;;;;;;;3.08;2.78;;;;;;;;;;4992289;28;20054;-92
2023/02/06 08:34:44;;;;;;;1.58;1.48;;;;;;;;;;4993222;28;20051;-88
2023/02/06 08:37:10;;;;;;;3.67;2.72;;;;;;;;;;4993231;28;20054;-89
2023/02/06 08:39:38;;;;;;;1.83;1.23;;;;;;;;;;4991431;28;20569;-88
2023/02/06 08:42:04;;;;;;;3.05;1.83;;;;;;;;;;4992141;28;20043;-89
2023/02/06 08:44:31;;;;;;;1.67;1.38;;;;;;;;;;4993360;28;20078;-89
2023/02/06 08:46:59;;;;;;;2.67;2.47;;;;;;;;;;4991193;28;20468;-90
2023/02/06 08:49:26;;;;;;;0.85;0.85;;;;;;;;;;4994504;28;20445;-91
2023/02/06 08:51:53;;;;;;;5.68;4.65;;;;;;;;;;4994264;28;20552;-92
2023/02/06 08:54:20;;;;;;;5.75;2.65;;;;;;;;;;4993384;28;20097;-89
2023/02/06 08:56:47;;;;;;;3.45;3.15;;;;;;;;;;4994126;28;20108;-90
2023/02/06 08:59:14;;;;;;;1.02;0.90;;;;;;;;;;4993475;28;20050;-89
2023/02/06 09:01:41;;;;;;;3.88;1.85;;;;;;;;;;4992941;28;20058;-89
2023/02/06 09:04:10;;;;;;;1.55;1.40;;;;;;;;;;4993309;28;20491;-87
2023/02/06 09:06:37;;;;;;;1.95;1.85;;;;;;;;;;5008412;28;20049;-90
2023/02/06 09:09:04;;;;;;;2.50;2.38;;;;;;;;;;4999486;28;20050;-90
2023/02/06 09:11:31;;;;;;;1.90;1.80;;;;;;;;;;4993716;28;20050;-90
2023/02/06 09:13:59;;;;;;;1.10;1.10;;;;;;;;;;4994862;28;20057;-90
2023/02/06 09:16:26;;;;;;;1.33;1.10;;;;;;;;;;4993643;28;20069;-89
2023/02/06 09:18:53;;;;;;;1.52;1.42;;;;;;;;;;4996980;28;20058;-88
2023/02/06 09:21:23;;;;;;;0.65;0.65;;;;;;;;;;4993264;28;20051;-88
2023/02/06 09:23:50;;;;;;;2.15;1.10;;;;;;;;;;4993216;28;20050;-88
2023/02/06 09:26:18;;;;;;;1.08;0.98;;;;;;;;;;4992583;28;20054;-89
2023/02/06 09:28:44;;;;;;;2.05;1.52;;;;;;;;;;4991015;28;20054;-89
2023/02/06 09:31:11;;;;;;;2.78;1.95;;;;;;;;;;4993333;28;20558;-89
2023/02/06 09:33:38;;;;;;;1.13;1.10;;;;;;;;;;4993656;28;20456;-88
2023/02/06 09:36:06;;;;;;;1.27;1.25;;;;;;;;;;4995853;28;20054;-88
2023/02/06 09:38:35;;;;;;;0.80;0.80;;;;;;;;;;4995841;28;20054;-87
2023/02/06 09:41:03;;;;;;;1.17;1.08;;;;;;;;;;4995565;28;20051;-88
2023/02/06 09:43:30;;;;;;;0.93;0.93;;;;;;;;;;4996056;28;20054;-88
2023/02/06 09:45:59;;;;;;;1.63;1.20;;;;;;;;;;4995741;28;20054;-88
2023/02/06 09:48:27;;;;;;;2.55;1.88;;;;;;;;;;4996000;28;20054;-89
2023/02/06 09:50:59;;;;;;;2.50;2.30;;;;;;;;;;4995275;28;20550;-88
2023/02/06 09:53:29;;;;;;;2.70;1.90;;;;;;;;;;4995395;28;20109;-88
2023/02/06 09:56:00;;;;;;;1.83;1.65;;;;;;;;;;4995482;28;20634;-88
2023/02/06 09:58:33;;;;;;;3.90;3.38;;;;;;;;;;4995756;28;20050;-88
2023/02/06 10:01:02;;;;;;;10.13;5.13;;;;;;;;;;4995254;28;20069;-88
2023/02/06 10:03:35;;;;;;;17.42;7.53;;;;;;;;;;4995055;28;20128;-88
2023/02/06 10:06:05;;;;;;;3.38;2.45;;;;;;;;;;4994922;28;20112;-89
2023/02/06 10:08:35;;;;;;;1.05;0.90;;;;;;;;;;4995118;28;20061;-89
2023/02/06 10:11:07;;;;;;;1.00;1.00;;;;;;;;;;4996185;28;20046;-89
2023/02/06 10:13:37;;;;;;;5.25;3.83;;;;;;;;;;4995363;28;20101;-89
2023/02/06 10:16:05;;;;;;;3.47;1.75;;;;;;;;;;4995668;28;20054;-89
2023/02/06 10:18:34;;;;;;;1.70;1.60;;;;;;;;;;4997313;28;20117;-89
2023/02/06 10:21:04;;;;;;;2.80;2.58;;;;;;;;;;4995171;28;20046;-88
2023/02/06 10:23:34;;;;;;;1.48;1.38;;;;;;;;;;4996407;28;20054;-88
2023/02/06 10:26:06;;;;;;;4.00;3.70;;;;;;;;;;4995998;28;20058;-88
2023/02/06 10:28:34;;;;;;;1.67;1.58;;;;;;;;;;4995476;28;20046;-89
2023/02/06 10:31:21;;;;;;;1.05;0.77;;;;;;;;;;4995515;28;20085;-88
2023/02/06 10:33:51;;;;;;;2.33;0.98;;;;;;;;;;4987584;28;20459;-89
2023/02/06 10:36:26;;;;;;;1.25;1.15;;;;;;;;;;4994993;28;20508;-88
2023/02/06 10:39:08;;;;;;;1.75;1.65;;;;;;;;;;4995130;28;20186;-89
2023/02/06 10:41:41;;;;;;;2.45;2.25;;;;;;;;;;4994937;28;20058;-88
2023/02/06 10:44:17;;;;;;;1.38;1.27;;;;;;;;;;4994974;28;20050;-88
2023/02/06 10:46:44;;;;;;;2.30;1.27;;;;;;;;;;4979088;28;20101;-88
2023/02/06 10:49:16;;;;;;;13.30;3.65;;;;;;;;;;4995855;28;20065;-88
2023/02/06 10:51:44;;;;;;;1.40;1.25;;;;;;;;;;4994481;28;20054;-88
2023/02/06 10:54:13;;;;;;;0.77;0.77;;;;;;;;;;4994964;28;20050;-89
2023/02/06 10:56:43;;;;;;;2.85;2.40;;;;;;;;;;4994821;28;20053;-88
2023/02/06 10:59:13;;;;;;;2.92;1.90;;;;;;;;;;4987795;28;20050;-89
2023/02/06 11:01:40;;;;;;;1.02;0.70;;;;;;;;;;5010982;28;20447;-90
2023/02/06 11:04:12;;;;;;;0.95;0.95;;;;;;;;;;4998873;28;20105;-89
2023/02/06 11:06:41;;;;;;;1.40;1.10;;;;;;;;;;4994814;28;20050;-89
2023/02/06 11:09:08;;;;;;;1.33;1.23;;;;;;;;;;4979911;28;20113;-89
2023/02/06 11:11:37;;;;;;;2.65;0.75;;;;;;;;;;4976053;28;20047;-88
2023/02/06 11:14:07;;;;;;;2.25;0.85;;;;;;;;;;4975272;28;20505;-88
2023/02/06 11:16:36;;;;;;;1.55;1.08;;;;;;;;;;4978964;28;20100;-87
2023/02/06 11:19:12;;;;;;;1.67;1.58;;;;;;;;;;5001414;28;20046;-89
2023/02/06 11:21:46;;;;;;;1.00;0.98;;;;;;;;;;4995127;28;20050;-89
2023/02/06 11:24:14;;;;;;;1.90;1.80;;;;;;;;;;4980150;28;20051;-88
2023/02/06 11:26:41;;;;;;;0.65;0.47;;;;;;;;;;4975305;28;20051;-90
2023/02/06 11:29:14;;;;;;;0.85;0.82;;;;;;;;;;4989635;28;20046;-89
2023/02/06 11:31:42;;;;;;;1.65;1.20;;;;;;;;;;4994855;28;20058;-88
2023/02/06 11:34:20;;;;;;;1.90;1.25;;;;;;;;;;4992786;28;20447;-87
2023/02/06 11:36:50;;;;;;;1.58;1.13;;;;;;;;;;4992915;28;20512;-88
2023/02/06 11:39:22;;;;;;;2.28;2.08;;;;;;;;;;4998362;28;20496;-87
2023/02/06 11:41:55;;;;;;;2.55;2.45;;;;;;;;;;5000215;28;20050;-88
2023/02/06 11:44:24;;;;;;;0.88;0.85;;;;;;;;;;4992807;28;20046;-87
2023/02/06 11:46:50;;;;;;;2.00;1.88;;;;;;;;;;4992998;28;20471;-87
2023/02/06 11:49:23;;;;;;;2.15;1.88;;;;;;;;;;4979103;28;20047;-87
2023/02/06 11:51:52;;;;;;;2.03;1.70;;;;;;;;;;4973678;28;20055;-88
2023/02/06 11:54:20;;;;;;;2.22;1.85;;;;;;;;;;4981036;28;20043;-87
2023/02/06 11:56:55;;;;;;;2.80;2.40;;;;;;;;;;4992645;28;20050;-88
2023/02/06 11:59:24;;;;;;;1.17;1.02;;;;;;;;;;4992401;28;20050;-88
2023/02/06 12:01:50;;;;;;;1.42;1.00;;;;;;;;;;4992480;28;20062;-88
2023/02/06 12:04:22;;;;;;;1.05;0.82;;;;;;;;;;4992782;28;20046;-88
2023/02/06 12:06:50;;;;;;;1.40;1.08;;;;;;;;;;4992986;28;20060;-89
2023/02/06 12:09:17;;;;;;;1.35;1.05;;;;;;;;;;4993088;28;20459;-88
2023/02/06 12:11:46;;;;;;;1.15;0.80;;;;;;;;;;4993407;28;20120;-86
2023/02/06 12:14:14;;;;;;;0.50;0.50;;;;;;;;;;4994552;28;20113;-88
2023/02/06 12:16:44;;;;;;;1.40;1.30;;;;;;;;;;5000367;28;20118;-87
2023/02/06 12:19:14;;;;;;;3.35;2.03;;;;;;;;;;4999612;28;20065;-87
2023/02/06 12:21:43;;;;;;;2.05;1.20;;;;;;;;;;4993871;28;20451;-86
2023/02/06 12:24:26;;;;;;;0.80;0.43;;;;;;;;;;4991738;28;20050;-89
2023/02/06 12:26:53;;;;;;;3.72;2.58;;;;;;;;;;4996224;28;20046;-88
2023/02/06 12:29:22;;;;;;;1.83;1.45;;;;;;;;;;4993795;28;20050;-87
2023/02/06 12:31:53;;;;;;;2.95;1.63;;;;;;;;;;5001301;28;20084;-87
2023/02/06 12:34:21;;;;;;;1.27;1.17;;;;;;;;;;5000881;28;20042;-87
2023/02/06 12:36:58;;;;;;;2.20;2.03;;;;;;;;;;4997091;28;20050;-87
2023/02/06 12:39:31;;;;;;;3.42;1.05;;;;;;;;;;4997373;28;20082;-89
2023/02/06 12:42:10;;;;;;;2.53;2.33;;;;;;;;;;5003663;28;20062;-89
2023/02/06 12:44:40;;;;;;;1.75;1.65;;;;;;;;;;5002759;28;20050;-88
2023/02/06 12:47:13;;;;;;;1.23;1.00;;;;;;;;;;5004173;28;20094;-89
2023/02/06 12:49:45;;;;;;;1.65;0.68;;;;;;;;;;5003005;28;20108;-89
2023/02/06 12:52:16;;;;;;;1.27;1.17;;;;;;;;;;4997499;28;20112;-90
2023/02/06 12:54:45;;;;;;;1.58;1.27;;;;;;;;;;4993002;28;20042;-90
2023/02/06 12:57:14;;;;;;;2.55;1.92;;;;;;;;;;4994219;28;20051;-89
2023/02/06 12:59:55;;;;;;;2.22;1.27;;;;;;;;;;4995688;28;20054;-91
2023/02/06 13:02:34;;;;;;;2.45;1.65;;;;;;;;;;4999974;28;20070;-91
2023/02/06 13:05:04;;;;;;;1.00;0.70;;;;;;;;;;5004564;28;20047;-89
2023/02/06 13:07:32;;;;;;;3.22;1.77;;;;;;;;;;5006374;28;20058;-91
2023/02/06 13:10:00;;;;;;;1.27;1.17;;;;;;;;;;5010078;28;20069;-92
2023/02/06 13:12:28;;;;;;;1.83;1.50;;;;;;;;;;5021330;28;20060;-90
2023/02/06 13:14:55;;;;;;;7.40;3.55;;;;;;;;;;5010300;28;20046;-90
2023/02/06 13:17:23;;;;;;;2.15;2.03;;;;;;;;;;5003762;28;20057;-88
2023/02/06 13:19:52;;;;;;;4.63;3.00;;;;;;;;;;5019067;28;20061;-90
2023/02/06 13:22:36;;;;;;;10.05;1.73;;;;;;;;;;5001149;28;20504;-90
2023/02/06 13:25:38;;;;;;;0.98;0.80;;;;;;;;;;5006268;28;20056;-90
2023/02/06 13:28:20;;;;;;;1.50;1.00;;;;;;;;;;5013207;28;20491;-90
2023/02/06 13:30:48;;;;;;;2.58;1.58;;;;;;;;;;5006155;28;20129;-89
2023/02/06 13:33:16;;;;;;;1.73;1.60;;;;;;;;;;4999193;28;20051;-90
2023/02/06 13:35:55;;;;;;;0.93;0.68;;;;;;;;;;5001634;28;20050;-89
2023/02/06 13:38:35;;;;;;;0.93;0.50;;;;;;;;;;5006908;28;20132;-89
2023/02/06 13:41:17;;;;;;;2.50;2.05;;;;;;;;;;4996666;28;20054;-88
2023/02/06 13:43:45;;;;;;;2.08;1.75;;;;;;;;;;4995628;28;20073;-90
2023/02/06 13:46:14;;;;;;;1.33;1.23;;;;;;;;;;4998175;28;20050;-90
2023/02/06 13:48:56;;;;;;;1.48;1.38;;;;;;;;;;4996018;28;20558;-89
2023/02/06 13:51:40;;;;;;;2.17;2.00;;;;;;;;;;4995849;28;20720;-90
2023/02/06 13:54:20;;;;;;;1.00;0.77;;;;;;;;;;4983051;28;20050;-90
2023/02/06 13:56:51;;;;;;;1.80;1.27;;;;;;;;;;5000482;28;20061;-89
2023/02/06 13:59:21;;;;;;;1.63;1.52;;;;;;;;;;5008182;28;20055;-89
2023/02/06 14:01:48;;;;;;;1.73;1.63;;;;;;;;;;4997876;28;20542;-89
2023/02/06 14:04:18;;;;;;;1.00;1.00;;;;;;;;;;5007804;28;20046;-89
2023/02/06 14:06:48;;;;;;;2.25;1.33;;;;;;;;;;4996398;28;20051;-90
2023/02/06 14:12:33;;;;;;;6.13;3.47;;;;;;;;;;4994197;28;20493;-89
2023/02/06 14:15:07;;;;;;;1.77;1.67;;;;;;;;;;4995923;28;20085;-90
2023/02/06 14:17:39;;;;;;;1.55;1.45;;;;;;;;;;4994417;28;20050;-90
2023/02/06 14:20:11;;;;;;;1.33;0.70;;;;;;;;;;4995511;28;20413;-91
2023/02/06 14:22:40;;;;;;;1.20;1.15;;;;;;;;;;5003310;28;20054;-89
2023/02/06 14:25:14;;;;;;;1.48;0.95;;;;;;;;;;5004207;28;20049;-90
2023/02/06 14:27:47;;;;;;;1.20;0.68;;;;;;;;;;5008603;28;20060;-90
2023/02/06 14:30:19;;;;;;;2.53;2.35;;;;;;;;;;5013397;28;20077;-90
2023/02/06 14:32:50;;;;;;;2.70;1.95;;;;;;;;;;4997795;28;20057;-89
2023/02/06 14:35:25;;;;;;;1.92;1.02;;;;;;;;;;4976588;28;20050;-89
2023/02/06 14:38:00;;;;;;;3.45;3.17;;;;;;;;;;4999362;28;20508;-89
2023/02/06 14:40:28;;;;;;;2.22;1.90;;;;;;;;;;4994973;28;20066;-89
2023/02/06 14:42:57;;;;;;;1.08;1.02;;;;;;;;;;4995591;28;20080;-89
2023/02/06 14:45:26;;;;;;;1.75;1.65;;;;;;;;;;4995092;28;20054;-90
2023/02/06 14:47:54;;;;;;;2.28;1.58;;;;;;;;;;4992490;28;20054;-89
2023/02/06 14:50:22;;;;;;;1.80;1.70;;;;;;;;;;4995110;28;20529;-91
2023/02/06 14:52:51;;;;;;;1.45;1.35;;;;;;;;;;4976596;28;20386;-91
2023/02/06 14:55:34;;;;;;;1.92;1.75;;;;;;;;;;4977727;28;20051;-90
2023/02/06 14:58:03;;;;;;;0.93;0.93;;;;;;;;;;4995432;28;20053;-90